sensor_id;sensor_type;location;lat;lon;timestamp;P1;durP1;ratioP1;P2;durP2;ratioP2
19733;SDS011;10018;51.230;7.860;2023-12-20T00:01:04;11.77;;;6.87;;
19733;SDS011;10018;51.230;7.860;2023-12-20T00:03:30;12.50;;;7.83;;
19733;SDS011;10018;51.230;7.860;2023-12-20T00:05:55;10.67;;;7.50;;
19733;SDS011;10018;51.230;7.860;2023-12-20T00:08:21;10.37;;;6.97;;
19733;SDS011;10018;51.230;7.860;2023-12-20T00:10:49;8.87;;;6.53;;
19733;SDS011;10018;51.230;7.860;2023-12-20T00:13:14;8.53;;;6.00;;
19733;SDS011;10018;51.230;7.860;2023-12-20T00:15:40;9.13;;;5.90;;
19733;SDS011;10018;51.230;7.860;2023-12-20T00:18:05;10.73;;;6.53;;
19733;SDS011;10018;51.230;7.860;2023-12-20T00:20:31;8.83;;;5.90;;
19733;SDS011;10018;51.230;7.860;2023-12-20T00:22:59;9.50;;;5.67;;
19733;SDS011;10018;51.230;7.860;2023-12-20T00:25:24;8.63;;;5.43;;
19733;SDS011;10018;51.230;7.860;2023-12-20T00:27:50;8.43;;;5.33;;
19733;SDS011;10018;51.230;7.860;2023-12-20T00:30:18;8.77;;;5.33;;
19733;SDS011;10018;51.230;7.860;2023-12-20T00:32:44;10.97;;;5.63;;
19733;SDS011;10018;51.230;7.860;2023-12-20T00:35:15;7.23;;;5.00;;
19733;SDS011;10018;51.230;7.860;2023-12-20T00:37:41;8.67;;;5.60;;
19733;SDS011;10018;51.230;7.860;2023-12-20T00:40:10;8.70;;;5.63;;
19733;SDS011;10018;51.230;7.860;2023-12-20T00:42:36;7.87;;;5.37;;
19733;SDS011;10018;51.230;7.860;2023-12-20T00:45:02;7.73;;;5.10;;
19733;SDS011;10018;51.230;7.860;2023-12-20T00:47:30;8.60;;;5.20;;
19733;SDS011;10018;51.230;7.860;2023-12-20T00:49:56;6.70;;;4.43;;
19733;SDS011;10018;51.230;7.860;2023-12-20T00:52:22;8.83;;;4.50;;
19733;SDS011;10018;51.230;7.860;2023-12-20T00:54:48;7.00;;;4.73;;
19733;SDS011;10018;51.230;7.860;2023-12-20T00:57:14;8.87;;;5.40;;
19733;SDS011;10018;51.230;7.860;2023-12-20T00:59:40;8.80;;;5.63;;
19733;SDS011;10018;51.230;7.860;2023-12-20T01:02:05;7.87;;;4.93;;
19733;SDS011;10018;51.230;7.860;2023-12-20T01:04:33;7.93;;;4.63;;
19733;SDS011;10018;51.230;7.860;2023-12-20T01:06:59;9.73;;;5.60;;
19733;SDS011;10018;51.230;7.860;2023-12-20T01:09:24;12.10;;;7.60;;
19733;SDS011;10018;51.230;7.860;2023-12-20T01:11:52;10.87;;;7.10;;
19733;SDS011;10018;51.230;7.860;2023-12-20T01:14:18;11.03;;;7.50;;
19733;SDS011;10018;51.230;7.860;2023-12-20T01:16:43;11.80;;;7.53;;
19733;SDS011;10018;51.230;7.860;2023-12-20T01:19:09;11.10;;;6.77;;
19733;SDS011;10018;51.230;7.860;2023-12-20T01:21:35;8.90;;;5.67;;
19733;SDS011;10018;51.230;7.860;2023-12-20T01:24:00;6.03;;;3.67;;
19733;SDS011;10018;51.230;7.860;2023-12-20T01:26:26;5.30;;;3.00;;
19733;SDS011;10018;51.230;7.860;2023-12-20T01:28:52;5.80;;;3.13;;
19733;SDS011;10018;51.230;7.860;2023-12-20T01:31:18;5.97;;;3.50;;
19733;SDS011;10018;51.230;7.860;2023-12-20T01:33:44;6.57;;;4.07;;
19733;SDS011;10018;51.230;7.860;2023-12-20T01:36:09;8.80;;;4.70;;
19733;SDS011;10018;51.230;7.860;2023-12-20T01:38:36;6.47;;;4.20;;
19733;SDS011;10018;51.230;7.860;2023-12-20T01:41:01;7.90;;;4.73;;
19733;SDS011;10018;51.230;7.860;2023-12-20T01:43:27;7.93;;;4.40;;
19733;SDS011;10018;51.230;7.860;2023-12-20T01:45:54;11.03;;;5.10;;
19733;SDS011;10018;51.230;7.860;2023-12-20T01:48:21;8.57;;;5.13;;
19733;SDS011;10018;51.230;7.860;2023-12-20T01:50:48;9.10;;;5.40;;
19733;SDS011;10018;51.230;7.860;2023-12-20T01:53:14;11.83;;;6.17;;
19733;SDS011;10018;51.230;7.860;2023-12-20T01:55:40;11.00;;;6.20;;
19733;SDS011;10018;51.230;7.860;2023-12-20T01:58:07;10.90;;;5.40;;
19733;SDS011;10018;51.230;7.860;2023-12-20T02:00:34;11.80;;;5.40;;
19733;SDS011;10018;51.230;7.860;2023-12-20T02:03:00;15.83;;;6.10;;
19733;SDS011;10018;51.230;7.860;2023-12-20T02:05:27;12.30;;;6.13;;
19733;SDS011;10018;51.230;7.860;2023-12-20T02:07:53;13.53;;;5.77;;
19733;SDS011;10018;51.230;7.860;2023-12-20T02:10:19;11.37;;;5.40;;
19733;SDS011;10018;51.230;7.860;2023-12-20T02:12:45;10.53;;;5.20;;
19733;SDS011;10018;51.230;7.860;2023-12-20T02:15:10;13.43;;;5.40;;
19733;SDS011;10018;51.230;7.860;2023-12-20T02:17:36;11.60;;;5.77;;
19733;SDS011;10018;51.230;7.860;2023-12-20T02:20:04;15.60;;;6.47;;
19733;SDS011;10018;51.230;7.860;2023-12-20T02:22:31;12.40;;;5.73;;
19733;SDS011;10018;51.230;7.860;2023-12-20T02:24:56;14.23;;;6.90;;
19733;SDS011;10018;51.230;7.860;2023-12-20T02:27:22;13.80;;;7.53;;
19733;SDS011;10018;51.230;7.860;2023-12-20T02:29:50;14.43;;;7.10;;
19733;SDS011;10018;51.230;7.860;2023-12-20T02:32:16;9.67;;;7.00;;
19733;SDS011;10018;51.230;7.860;2023-12-20T02:34:43;15.03;;;8.20;;
19733;SDS011;10018;51.230;7.860;2023-12-20T02:37:08;13.77;;;8.07;;
19733;SDS011;10018;51.230;7.860;2023-12-20T02:39:34;21.33;;;8.73;;
19733;SDS011;10018;51.230;7.860;2023-12-20T02:42:00;15.87;;;7.90;;
19733;SDS011;10018;51.230;7.860;2023-12-20T02:44:25;12.00;;;7.37;;
19733;SDS011;10018;51.230;7.860;2023-12-20T02:46:51;16.30;;;8.40;;
19733;SDS011;10018;51.230;7.860;2023-12-20T02:49:16;16.83;;;7.50;;
19733;SDS011;10018;51.230;7.860;2023-12-20T02:51:42;16.87;;;8.00;;
19733;SDS011;10018;51.230;7.860;2023-12-20T02:54:10;12.80;;;7.27;;
19733;SDS011;10018;51.230;7.860;2023-12-20T02:56:35;16.20;;;8.37;;
19733;SDS011;10018;51.230;7.860;2023-12-20T02:59:01;20.43;;;8.13;;
19733;SDS011;10018;51.230;7.860;2023-12-20T03:01:27;17.50;;;7.80;;
19733;SDS011;10018;51.230;7.860;2023-12-20T03:03:53;13.47;;;6.90;;
19733;SDS011;10018;51.230;7.860;2023-12-20T03:06:19;13.57;;;7.40;;
19733;SDS011;10018;51.230;7.860;2023-12-20T03:08:47;17.10;;;7.00;;
19733;SDS011;10018;51.230;7.860;2023-12-20T03:11:12;18.10;;;7.67;;
19733;SDS011;10018;51.230;7.860;2023-12-20T03:13:38;18.10;;;7.90;;
19733;SDS011;10018;51.230;7.860;2023-12-20T03:16:13;13.43;;;7.17;;
19733;SDS011;10018;51.230;7.860;2023-12-20T03:18:41;13.13;;;7.20;;
19733;SDS011;10018;51.230;7.860;2023-12-20T03:21:06;18.03;;;7.10;;
19733;SDS011;10018;51.230;7.860;2023-12-20T03:23:34;13.03;;;7.13;;
19733;SDS011;10018;51.230;7.860;2023-12-20T03:26:00;15.27;;;7.70;;
19733;SDS011;10018;51.230;7.860;2023-12-20T03:28:29;16.63;;;8.30;;
19733;SDS011;10018;51.230;7.860;2023-12-20T03:30:55;14.30;;;8.17;;
19733;SDS011;10018;51.230;7.860;2023-12-20T03:33:20;14.83;;;7.77;;
19733;SDS011;10018;51.230;7.860;2023-12-20T03:35:48;14.87;;;7.23;;
19733;SDS011;10018;51.230;7.860;2023-12-20T03:38:13;13.00;;;6.60;;
19733;SDS011;10018;51.230;7.860;2023-12-20T03:40:39;13.50;;;6.27;;
19733;SDS011;10018;51.230;7.860;2023-12-20T03:43:05;17.97;;;5.87;;
19733;SDS011;10018;51.230;7.860;2023-12-20T03:45:30;11.87;;;5.67;;
19733;SDS011;10018;51.230;7.860;2023-12-20T03:47:56;12.70;;;5.77;;
19733;SDS011;10018;51.230;7.860;2023-12-20T03:50:22;9.20;;;5.20;;
19733;SDS011;10018;51.230;7.860;2023-12-20T03:52:50;12.20;;;4.73;;
19733;SDS011;10018;51.230;7.860;2023-12-20T03:55:16;8.63;;;4.10;;
19733;SDS011;10018;51.230;7.860;2023-12-20T03:57:41;10.90;;;4.30;;
19733;SDS011;10018;51.230;7.860;2023-12-20T04:00:07;11.87;;;4.83;;
19733;SDS011;10018;51.230;7.860;2023-12-20T04:02:35;15.57;;;5.77;;
19733;SDS011;10018;51.230;7.860;2023-12-20T04:05:01;15.57;;;5.23;;
19733;SDS011;10018;51.230;7.860;2023-12-20T04:07:27;14.27;;;5.60;;
19733;SDS011;10018;51.230;7.860;2023-12-20T04:09:55;15.73;;;5.27;;
19733;SDS011;10018;51.230;7.860;2023-12-20T04:12:20;17.13;;;5.73;;
19733;SDS011;10018;51.230;7.860;2023-12-20T04:14:46;14.57;;;5.73;;
19733;SDS011;10018;51.230;7.860;2023-12-20T04:17:11;12.07;;;5.50;;
19733;SDS011;10018;51.230;7.860;2023-12-20T04:19:37;11.97;;;5.50;;
19733;SDS011;10018;51.230;7.860;2023-12-20T04:22:02;17.27;;;6.60;;
19733;SDS011;10018;51.230;7.860;2023-12-20T04:24:28;16.53;;;6.40;;
19733;SDS011;10018;51.230;7.860;2023-12-20T04:26:54;16.80;;;7.17;;
19733;SDS011;10018;51.230;7.860;2023-12-20T04:29:19;16.77;;;6.87;;
19733;SDS011;10018;51.230;7.860;2023-12-20T04:31:45;16.13;;;5.93;;
19733;SDS011;10018;51.230;7.860;2023-12-20T04:34:10;21.80;;;6.53;;
19733;SDS011;10018;51.230;7.860;2023-12-20T04:36:36;16.70;;;5.47;;
19733;SDS011;10018;51.230;7.860;2023-12-20T04:39:02;15.80;;;5.50;;
19733;SDS011;10018;51.230;7.860;2023-12-20T04:41:28;17.67;;;5.50;;
19733;SDS011;10018;51.230;7.860;2023-12-20T04:43:53;13.93;;;5.27;;
19733;SDS011;10018;51.230;7.860;2023-12-20T04:46:19;20.37;;;4.90;;
19733;SDS011;10018;51.230;7.860;2023-12-20T04:48:44;15.73;;;4.80;;
19733;SDS011;10018;51.230;7.860;2023-12-20T04:51:10;15.90;;;5.37;;
19733;SDS011;10018;51.230;7.860;2023-12-20T04:53:35;11.23;;;4.77;;
19733;SDS011;10018;51.230;7.860;2023-12-20T04:56:01;14.07;;;4.83;;
19733;SDS011;10018;51.230;7.860;2023-12-20T04:58:29;16.30;;;4.83;;
19733;SDS011;10018;51.230;7.860;2023-12-20T05:00:55;15.97;;;5.20;;
19733;SDS011;10018;51.230;7.860;2023-12-20T05:03:23;14.27;;;5.07;;
19733;SDS011;10018;51.230;7.860;2023-12-20T05:05:48;11.47;;;4.87;;
19733;SDS011;10018;51.230;7.860;2023-12-20T05:08:14;15.17;;;4.43;;
19733;SDS011;10018;51.230;7.860;2023-12-20T05:10:40;13.80;;;4.93;;
19733;SDS011;10018;51.230;7.860;2023-12-20T05:13:06;16.40;;;4.37;;
19733;SDS011;10018;51.230;7.860;2023-12-20T05:15:31;18.80;;;4.40;;
19733;SDS011;10018;51.230;7.860;2023-12-20T05:17:57;16.33;;;4.10;;
19733;SDS011;10018;51.230;7.860;2023-12-20T05:20:22;16.90;;;4.87;;
19733;SDS011;10018;51.230;7.860;2023-12-20T05:22:48;15.50;;;4.53;;
19733;SDS011;10018;51.230;7.860;2023-12-20T05:25:14;14.03;;;4.23;;
19733;SDS011;10018;51.230;7.860;2023-12-20T05:27:39;12.53;;;5.07;;
19733;SDS011;10018;51.230;7.860;2023-12-20T05:30:05;15.67;;;4.67;;
19733;SDS011;10018;51.230;7.860;2023-12-20T05:32:31;18.63;;;5.40;;
19733;SDS011;10018;51.230;7.860;2023-12-20T05:34:56;15.50;;;4.70;;
19733;SDS011;10018;51.230;7.860;2023-12-20T05:37:22;18.20;;;5.17;;
19733;SDS011;10018;51.230;7.860;2023-12-20T05:39:48;21.53;;;5.40;;
19733;SDS011;10018;51.230;7.860;2023-12-20T05:42:13;15.87;;;5.30;;
19733;SDS011;10018;51.230;7.860;2023-12-20T05:44:39;24.83;;;6.10;;
19733;SDS011;10018;51.230;7.860;2023-12-20T05:47:04;18.37;;;5.50;;
19733;SDS011;10018;51.230;7.860;2023-12-20T05:49:30;15.70;;;5.70;;
19733;SDS011;10018;51.230;7.860;2023-12-20T05:51:56;17.47;;;5.30;;
19733;SDS011;10018;51.230;7.860;2023-12-20T05:54:22;19.30;;;5.00;;
19733;SDS011;10018;51.230;7.860;2023-12-20T05:56:48;17.47;;;5.43;;
19733;SDS011;10018;51.230;7.860;2023-12-20T05:59:13;17.53;;;5.60;;
19733;SDS011;10018;51.230;7.860;2023-12-20T06:01:41;17.70;;;5.90;;
19733;SDS011;10018;51.230;7.860;2023-12-20T06:04:07;20.77;;;5.57;;
19733;SDS011;10018;51.230;7.860;2023-12-20T06:06:32;21.97;;;5.73;;
19733;SDS011;10018;51.230;7.860;2023-12-20T06:09:00;21.20;;;6.10;;
19733;SDS011;10018;51.230;7.860;2023-12-20T06:11:27;17.17;;;5.70;;
19733;SDS011;10018;51.230;7.860;2023-12-20T06:13:55;19.20;;;5.87;;
19733;SDS011;10018;51.230;7.860;2023-12-20T06:16:21;19.77;;;6.20;;
19733;SDS011;10018;51.230;7.860;2023-12-20T06:18:46;23.13;;;6.70;;
19733;SDS011;10018;51.230;7.860;2023-12-20T06:21:12;17.23;;;5.97;;
19733;SDS011;10018;51.230;7.860;2023-12-20T06:23:38;20.37;;;5.77;;
19733;SDS011;10018;51.230;7.860;2023-12-20T06:26:03;21.00;;;6.03;;
19733;SDS011;10018;51.230;7.860;2023-12-20T06:28:29;20.53;;;5.60;;
19733;SDS011;10018;51.230;7.860;2023-12-20T06:30:55;16.60;;;5.10;;
19733;SDS011;10018;51.230;7.860;2023-12-20T06:33:21;16.87;;;5.47;;
19733;SDS011;10018;51.230;7.860;2023-12-20T06:35:47;19.10;;;5.80;;
19733;SDS011;10018;51.230;7.860;2023-12-20T06:38:13;18.13;;;5.60;;
19733;SDS011;10018;51.230;7.860;2023-12-20T06:40:39;19.93;;;5.60;;
19733;SDS011;10018;51.230;7.860;2023-12-20T06:43:05;18.53;;;5.33;;
19733;SDS011;10018;51.230;7.860;2023-12-20T06:45:31;21.93;;;5.20;;
19733;SDS011;10018;51.230;7.860;2023-12-20T06:47:59;15.03;;;5.37;;
19733;SDS011;10018;51.230;7.860;2023-12-20T06:50:25;22.53;;;5.93;;
19733;SDS011;10018;51.230;7.860;2023-12-20T06:52:50;17.27;;;5.40;;
19733;SDS011;10018;51.230;7.860;2023-12-20T06:55:16;20.63;;;5.40;;
19733;SDS011;10018;51.230;7.860;2023-12-20T06:57:42;18.30;;;5.63;;
19733;SDS011;10018;51.230;7.860;2023-12-20T07:00:08;19.80;;;5.63;;
19733;SDS011;10018;51.230;7.860;2023-12-20T07:02:35;12.47;;;4.87;;
19733;SDS011;10018;51.230;7.860;2023-12-20T07:05:01;17.13;;;5.63;;
19733;SDS011;10018;51.230;7.860;2023-12-20T07:07:27;11.17;;;4.97;;
19733;SDS011;10018;51.230;7.860;2023-12-20T07:09:52;20.93;;;5.83;;
19733;SDS011;10018;51.230;7.860;2023-12-20T07:12:18;18.87;;;5.10;;
19733;SDS011;10018;51.230;7.860;2023-12-20T07:14:44;18.23;;;5.37;;
19733;SDS011;10018;51.230;7.860;2023-12-20T07:17:10;15.77;;;5.00;;
19733;SDS011;10018;51.230;7.860;2023-12-20T07:19:38;19.53;;;5.13;;
19733;SDS011;10018;51.230;7.860;2023-12-20T07:22:05;15.63;;;4.50;;
19733;SDS011;10018;51.230;7.860;2023-12-20T07:24:33;19.40;;;5.10;;
19733;SDS011;10018;51.230;7.860;2023-12-20T07:26:59;14.47;;;4.50;;
19733;SDS011;10018;51.230;7.860;2023-12-20T07:29:25;17.20;;;4.87;;
19733;SDS011;10018;51.230;7.860;2023-12-20T07:31:52;16.50;;;4.27;;
19733;SDS011;10018;51.230;7.860;2023-12-20T07:34:18;14.97;;;5.33;;
19733;SDS011;10018;51.230;7.860;2023-12-20T07:36:47;12.27;;;5.20;;
19733;SDS011;10018;51.230;7.860;2023-12-20T07:39:12;16.23;;;5.63;;
19733;SDS011;10018;51.230;7.860;2023-12-20T07:41:38;18.87;;;7.00;;
19733;SDS011;10018;51.230;7.860;2023-12-20T07:44:04;19.10;;;6.23;;
19733;SDS011;10018;51.230;7.860;2023-12-20T07:46:30;18.20;;;6.70;;
19733;SDS011;10018;51.230;7.860;2023-12-20T07:48:55;18.33;;;6.33;;
19733;SDS011;10018;51.230;7.860;2023-12-20T07:51:21;14.43;;;6.27;;
19733;SDS011;10018;51.230;7.860;2023-12-20T07:53:47;19.53;;;8.00;;
19733;SDS011;10018;51.230;7.860;2023-12-20T07:56:16;14.60;;;6.17;;
19733;SDS011;10018;51.230;7.860;2023-12-20T07:58:42;18.33;;;6.37;;
19733;SDS011;10018;51.230;7.860;2023-12-20T08:01:08;18.70;;;7.07;;
19733;SDS011;10018;51.230;7.860;2023-12-20T08:03:34;15.90;;;6.10;;
19733;SDS011;10018;51.230;7.860;2023-12-20T08:06:00;19.97;;;6.47;;
19733;SDS011;10018;51.230;7.860;2023-12-20T08:08:25;21.03;;;6.30;;
19733;SDS011;10018;51.230;7.860;2023-12-20T08:10:51;17.80;;;6.10;;
19733;SDS011;10018;51.230;7.860;2023-12-20T08:13:16;18.23;;;5.80;;
19733;SDS011;10018;51.230;7.860;2023-12-20T08:15:42;16.17;;;6.37;;
19733;SDS011;10018;51.230;7.860;2023-12-20T08:18:07;16.67;;;6.33;;
19733;SDS011;10018;51.230;7.860;2023-12-20T08:20:33;19.77;;;5.97;;
19733;SDS011;10018;51.230;7.860;2023-12-20T08:22:58;16.77;;;5.17;;
19733;SDS011;10018;51.230;7.860;2023-12-20T08:25:24;18.10;;;5.33;;
19733;SDS011;10018;51.230;7.860;2023-12-20T08:27:50;23.10;;;6.00;;
19733;SDS011;10018;51.230;7.860;2023-12-20T08:30:15;14.50;;;5.00;;
19733;SDS011;10018;51.230;7.860;2023-12-20T08:32:45;17.77;;;5.00;;
19733;SDS011;10018;51.230;7.860;2023-12-20T08:35:11;18.30;;;5.57;;
19733;SDS011;10018;51.230;7.860;2023-12-20T08:37:39;17.97;;;4.53;;
19733;SDS011;10018;51.230;7.860;2023-12-20T08:40:05;13.33;;;4.63;;
19733;SDS011;10018;51.230;7.860;2023-12-20T08:42:31;14.30;;;4.63;;
19733;SDS011;10018;51.230;7.860;2023-12-20T08:44:59;19.37;;;4.70;;
19733;SDS011;10018;51.230;7.860;2023-12-20T08:47:25;17.07;;;5.17;;
19733;SDS011;10018;51.230;7.860;2023-12-20T08:49:51;14.53;;;4.83;;
19733;SDS011;10018;51.230;7.860;2023-12-20T08:52:21;15.67;;;5.13;;
19733;SDS011;10018;51.230;7.860;2023-12-20T08:54:49;18.67;;;6.20;;
19733;SDS011;10018;51.230;7.860;2023-12-20T08:57:18;19.30;;;4.77;;
19733;SDS011;10018;51.230;7.860;2023-12-20T08:59:48;16.47;;;4.60;;
19733;SDS011;10018;51.230;7.860;2023-12-20T09:02:14;15.53;;;4.87;;
19733;SDS011;10018;51.230;7.860;2023-12-20T09:04:40;12.73;;;4.90;;
19733;SDS011;10018;51.230;7.860;2023-12-20T09:07:06;19.27;;;5.00;;
19733;SDS011;10018;51.230;7.860;2023-12-20T09:09:32;21.90;;;5.97;;
19733;SDS011;10018;51.230;7.860;2023-12-20T09:11:58;13.83;;;5.70;;
19733;SDS011;10018;51.230;7.860;2023-12-20T09:14:24;14.20;;;4.73;;
19733;SDS011;10018;51.230;7.860;2023-12-20T09:16:49;22.60;;;6.00;;
19733;SDS011;10018;51.230;7.860;2023-12-20T09:19:16;17.00;;;5.37;;
19733;SDS011;10018;51.230;7.860;2023-12-20T09:21:42;17.60;;;5.60;;
19733;SDS011;10018;51.230;7.860;2023-12-20T09:24:08;17.70;;;5.47;;
19733;SDS011;10018;51.230;7.860;2023-12-20T09:26:34;19.27;;;5.10;;
19733;SDS011;10018;51.230;7.860;2023-12-20T09:29:00;15.13;;;5.17;;
19733;SDS011;10018;51.230;7.860;2023-12-20T09:31:28;17.67;;;5.23;;
19733;SDS011;10018;51.230;7.860;2023-12-20T09:33:53;14.20;;;4.90;;
19733;SDS011;10018;51.230;7.860;2023-12-20T09:36:19;12.83;;;5.20;;
19733;SDS011;10018;51.230;7.860;2023-12-20T09:38:45;14.47;;;4.73;;
19733;SDS011;10018;51.230;7.860;2023-12-20T09:41:12;16.33;;;5.40;;
19733;SDS011;10018;51.230;7.860;2023-12-20T09:43:38;19.73;;;6.00;;
19733;SDS011;10018;51.230;7.860;2023-12-20T09:46:05;18.03;;;5.13;;
19733;SDS011;10018;51.230;7.860;2023-12-20T09:48:32;22.07;;;5.50;;
19733;SDS011;10018;51.230;7.860;2023-12-20T09:50:59;17.10;;;5.57;;
19733;SDS011;10018;51.230;7.860;2023-12-20T09:53:25;14.03;;;5.37;;
19733;SDS011;10018;51.230;7.860;2023-12-20T09:55:58;17.10;;;5.60;;
19733;SDS011;10018;51.230;7.860;2023-12-20T09:58:27;15.83;;;5.60;;
19733;SDS011;10018;51.230;7.860;2023-12-20T10:00:53;19.02;;;6.13;;
19733;SDS011;10018;51.230;7.860;2023-12-20T10:03:22;18.83;;;6.20;;
19733;SDS011;10018;51.230;7.860;2023-12-20T10:05:52;20.33;;;6.23;;
19733;SDS011;10018;51.230;7.860;2023-12-20T10:08:21;17.57;;;5.83;;
19733;SDS011;10018;51.230;7.860;2023-12-20T10:10:49;24.30;;;5.97;;
19733;SDS011;10018;51.230;7.860;2023-12-20T10:13:15;24.77;;;6.23;;
19733;SDS011;10018;51.230;7.860;2023-12-20T10:15:41;22.20;;;6.43;;
19733;SDS011;10018;51.230;7.860;2023-12-20T10:18:06;17.13;;;5.53;;
19733;SDS011;10018;51.230;7.860;2023-12-20T10:20:33;20.30;;;5.53;;
19733;SDS011;10018;51.230;7.860;2023-12-20T10:22:59;17.63;;;5.63;;
19733;SDS011;10018;51.230;7.860;2023-12-20T10:25:25;17.23;;;5.60;;
19733;SDS011;10018;51.230;7.860;2023-12-20T10:28:08;19.60;;;5.40;;
19733;SDS011;10018;51.230;7.860;2023-12-20T10:30:38;15.43;;;5.40;;
19733;SDS011;10018;51.230;7.860;2023-12-20T10:33:05;13.77;;;5.63;;
19733;SDS011;10018;51.230;7.860;2023-12-20T10:35:34;16.27;;;5.43;;
19733;SDS011;10018;51.230;7.860;2023-12-20T10:38:04;15.63;;;5.23;;
19733;SDS011;10018;51.230;7.860;2023-12-20T10:40:30;17.17;;;5.80;;
19733;SDS011;10018;51.230;7.860;2023-12-20T10:42:59;16.67;;;5.80;;
19733;SDS011;10018;51.230;7.860;2023-12-20T10:45:26;20.00;;;6.20;;
19733;SDS011;10018;51.230;7.860;2023-12-20T10:47:51;16.77;;;7.10;;
19733;SDS011;10018;51.230;7.860;2023-12-20T10:50:18;14.30;;;5.33;;
19733;SDS011;10018;51.230;7.860;2023-12-20T10:52:45;12.43;;;5.17;;
19733;SDS011;10018;51.230;7.860;2023-12-20T10:55:12;21.47;;;7.10;;
19733;SDS011;10018;51.230;7.860;2023-12-20T10:57:40;20.10;;;5.57;;
19733;SDS011;10018;51.230;7.860;2023-12-20T11:00:08;13.33;;;5.37;;
19733;SDS011;10018;51.230;7.860;2023-12-20T11:02:39;12.50;;;5.10;;
19733;SDS011;10018;51.230;7.860;2023-12-20T11:05:53;12.97;;;4.90;;
19733;SDS011;10018;51.230;7.860;2023-12-20T11:08:09;13.17;;;5.03;;
19733;SDS011;10018;51.230;7.860;2023-12-20T11:13:30;15.17;;;5.20;;
19733;SDS011;10018;51.230;7.860;2023-12-20T11:16:09;17.73;;;6.10;;
19733;SDS011;10018;51.230;7.860;2023-12-20T11:18:35;14.73;;;4.70;;
19733;SDS011;10018;51.230;7.860;2023-12-20T11:21:01;13.97;;;4.60;;
19733;SDS011;10018;51.230;7.860;2023-12-20T11:23:29;12.93;;;4.60;;
19733;SDS011;10018;51.230;7.860;2023-12-20T11:25:55;14.23;;;5.17;;
19733;SDS011;10018;51.230;7.860;2023-12-20T11:28:25;13.37;;;4.50;;
19733;SDS011;10018;51.230;7.860;2023-12-20T11:30:52;13.90;;;5.20;;
19733;SDS011;10018;51.230;7.860;2023-12-20T11:33:21;16.57;;;5.20;;
19733;SDS011;10018;51.230;7.860;2023-12-20T11:35:51;20.03;;;6.13;;
19733;SDS011;10018;51.230;7.860;2023-12-20T11:38:20;16.97;;;5.13;;
19733;SDS011;10018;51.230;7.860;2023-12-20T11:40:47;12.73;;;4.97;;
19733;SDS011;10018;51.230;7.860;2023-12-20T11:43:29;14.87;;;5.40;;
19733;SDS011;10018;51.230;7.860;2023-12-20T11:46:05;24.80;;;5.97;;
19733;SDS011;10018;51.230;7.860;2023-12-20T11:48:39;18.97;;;6.10;;
19733;SDS011;10018;51.230;7.860;2023-12-20T11:51:09;17.53;;;6.07;;
19733;SDS011;10018;51.230;7.860;2023-12-20T11:53:38;14.13;;;5.53;;
19733;SDS011;10018;51.230;7.860;2023-12-20T11:56:07;18.13;;;5.70;;
19733;SDS011;10018;51.230;7.860;2023-12-20T11:58:34;16.30;;;5.40;;
19733;SDS011;10018;51.230;7.860;2023-12-20T12:01:00;15.63;;;5.10;;
19733;SDS011;10018;51.230;7.860;2023-12-20T12:03:29;14.47;;;4.87;;
19733;SDS011;10018;51.230;7.860;2023-12-20T12:05:55;14.67;;;4.97;;
19733;SDS011;10018;51.230;7.860;2023-12-20T12:08:21;15.27;;;4.90;;
19733;SDS011;10018;51.230;7.860;2023-12-20T12:10:46;18.03;;;5.80;;
19733;SDS011;10018;51.230;7.860;2023-12-20T12:13:12;13.37;;;5.27;;
19733;SDS011;10018;51.230;7.860;2023-12-20T12:15:39;15.70;;;6.13;;
19733;SDS011;10018;51.230;7.860;2023-12-20T12:18:06;15.03;;;5.87;;
19733;SDS011;10018;51.230;7.860;2023-12-20T12:20:35;13.33;;;5.50;;
19733;SDS011;10018;51.230;7.860;2023-12-20T12:23:04;12.40;;;5.20;;
19733;SDS011;10018;51.230;7.860;2023-12-20T12:25:31;15.93;;;4.73;;
19733;SDS011;10018;51.230;7.860;2023-12-20T12:27:58;9.67;;;4.70;;
19733;SDS011;10018;51.230;7.860;2023-12-20T12:30:24;12.00;;;4.60;;
19733;SDS011;10018;51.230;7.860;2023-12-20T12:32:51;11.83;;;4.97;;
19733;SDS011;10018;51.230;7.860;2023-12-20T12:35:17;18.63;;;5.43;;
19733;SDS011;10018;51.230;7.860;2023-12-20T12:37:43;16.47;;;5.27;;
19733;SDS011;10018;51.230;7.860;2023-12-20T12:40:13;18.90;;;5.37;;
19733;SDS011;10018;51.230;7.860;2023-12-20T12:42:40;16.30;;;5.27;;
19733;SDS011;10018;51.230;7.860;2023-12-20T12:45:07;17.10;;;6.10;;
19733;SDS011;10018;51.230;7.860;2023-12-20T12:47:36;15.13;;;5.80;;
19733;SDS011;10018;51.230;7.860;2023-12-20T12:50:02;18.43;;;5.57;;
19733;SDS011;10018;51.230;7.860;2023-12-20T12:52:27;13.33;;;5.90;;
19733;SDS011;10018;51.230;7.860;2023-12-20T12:54:53;13.97;;;5.30;;
19733;SDS011;10018;51.230;7.860;2023-12-20T12:57:19;12.27;;;5.43;;
19733;SDS011;10018;51.230;7.860;2023-12-20T12:59:45;15.20;;;5.63;;
19733;SDS011;10018;51.230;7.860;2023-12-20T13:02:14;16.13;;;5.70;;
19733;SDS011;10018;51.230;7.860;2023-12-20T13:04:40;14.63;;;5.10;;
19733;SDS011;10018;51.230;7.860;2023-12-20T13:07:06;11.50;;;5.87;;
19733;SDS011;10018;51.230;7.860;2023-12-20T13:09:37;11.20;;;4.80;;
19733;SDS011;10018;51.230;7.860;2023-12-20T13:12:04;14.70;;;5.93;;
19733;SDS011;10018;51.230;7.860;2023-12-20T13:14:32;11.47;;;4.90;;
19733;SDS011;10018;51.230;7.860;2023-12-20T13:16:59;9.43;;;4.53;;
19733;SDS011;10018;51.230;7.860;2023-12-20T13:19:25;12.27;;;4.43;;
19733;SDS011;10018;51.230;7.860;2023-12-20T13:21:50;9.67;;;4.50;;
19733;SDS011;10018;51.230;7.860;2023-12-20T13:24:16;14.23;;;4.27;;
19733;SDS011;10018;51.230;7.860;2023-12-20T13:26:42;11.17;;;4.87;;
19733;SDS011;10018;51.230;7.860;2023-12-20T13:29:07;11.00;;;5.23;;
19733;SDS011;10018;51.230;7.860;2023-12-20T13:31:33;8.97;;;3.73;;
19733;SDS011;10018;51.230;7.860;2023-12-20T13:34:01;8.27;;;3.50;;
19733;SDS011;10018;51.230;7.860;2023-12-20T13:36:27;15.07;;;5.73;;
19733;SDS011;10018;51.230;7.860;2023-12-20T13:38:52;8.90;;;4.17;;
19733;SDS011;10018;51.230;7.860;2023-12-20T13:41:21;11.40;;;4.10;;
19733;SDS011;10018;51.230;7.860;2023-12-20T13:43:47;7.93;;;3.90;;
19733;SDS011;10018;51.230;7.860;2023-12-20T13:46:12;11.10;;;3.90;;
19733;SDS011;10018;51.230;7.860;2023-12-20T13:48:39;8.93;;;4.00;;
19733;SDS011;10018;51.230;7.860;2023-12-20T13:51:06;10.20;;;3.70;;
19733;SDS011;10018;51.230;7.860;2023-12-20T13:53:31;10.70;;;4.50;;
19733;SDS011;10018;51.230;7.860;2023-12-20T13:55:57;13.43;;;4.77;;
19733;SDS011;10018;51.230;7.860;2023-12-20T13:58:24;13.70;;;4.53;;
19733;SDS011;10018;51.230;7.860;2023-12-20T14:00:50;11.97;;;4.50;;
19733;SDS011;10018;51.230;7.860;2023-12-20T14:03:16;10.67;;;4.87;;
19733;SDS011;10018;51.230;7.860;2023-12-20T14:05:41;12.60;;;5.80;;
19733;SDS011;10018;51.230;7.860;2023-12-20T14:08:09;11.10;;;5.00;;
19733;SDS011;10018;51.230;7.860;2023-12-20T14:10:35;12.50;;;5.00;;
19733;SDS011;10018;51.230;7.860;2023-12-20T14:13:00;11.37;;;4.97;;
19733;SDS011;10018;51.230;7.860;2023-12-20T14:15:28;11.27;;;5.03;;
19733;SDS011;10018;51.230;7.860;2023-12-20T14:18:01;12.73;;;5.00;;
19733;SDS011;10018;51.230;7.860;2023-12-20T14:20:31;14.93;;;4.83;;
19733;SDS011;10018;51.230;7.860;2023-12-20T14:22:57;11.07;;;4.70;;
19733;SDS011;10018;51.230;7.860;2023-12-20T14:25:22;10.00;;;4.47;;
19733;SDS011;10018;51.230;7.860;2023-12-20T14:27:48;10.63;;;4.73;;
19733;SDS011;10018;51.230;7.860;2023-12-20T14:30:13;10.10;;;4.93;;
19733;SDS011;10018;51.230;7.860;2023-12-20T14:32:39;10.20;;;5.03;;
19733;SDS011;10018;51.230;7.860;2023-12-20T14:35:05;9.03;;;4.70;;